createdAt,value
2018-09-06T00:00:20.846Z,99.90
2018-09-06T00:02:48.544Z,99.90
2018-09-06T00:05:16.258Z,99.90
2018-09-06T00:07:43.890Z,99.90
2018-09-06T00:10:11.592Z,99.90
2018-09-06T00:12:39.286Z,99.90
2018-09-06T00:15:06.919Z,99.90
2018-09-06T00:17:38.974Z,99.90
2018-09-06T00:20:06.651Z,99.90
2018-09-06T00:22:34.391Z,99.90
2018-09-06T00:25:02.091Z,99.90
2018-09-06T00:27:29.785Z,99.90
2018-09-06T00:29:57.416Z,99.90
2018-09-06T00:32:25.064Z,99.90
2018-09-06T00:34:52.833Z,99.90
2018-09-06T00:37:20.559Z,99.90
2018-09-06T00:39:48.223Z,99.90
2018-09-06T00:42:15.912Z,99.90
2018-09-06T00:44:43.601Z,99.90
2018-09-06T00:47:11.249Z,99.90
2018-09-06T00:49:39.091Z,99.90
2018-09-06T00:52:06.880Z,99.90
2018-09-06T00:54:34.552Z,99.90
2018-09-06T00:59:47.732Z,99.90
2018-09-06T01:02:15.378Z,99.90
2018-09-06T01:04:43.072Z,99.90
2018-09-06T01:07:10.739Z,99.90
2018-09-06T01:09:38.524Z,99.90
2018-09-06T01:12:06.151Z,99.90
2018-09-06T01:14:33.850Z,99.90
2018-09-06T01:17:01.613Z,99.90
2018-09-06T01:19:29.255Z,99.90
2018-09-06T01:21:56.918Z,99.90
2018-09-06T01:24:24.742Z,99.90
2018-09-06T01:26:52.428Z,99.90
2018-09-06T01:29:20.119Z,99.90
2018-09-06T01:31:47.758Z,99.90
2018-09-06T01:34:15.415Z,99.90
2018-09-06T01:36:47.090Z,99.90
2018-09-06T01:39:15.023Z,99.90
2018-09-06T01:41:42.958Z,99.90
2018-09-06T01:44:10.679Z,99.90
2018-09-06T01:46:38.912Z,99.90
2018-09-06T01:49:06.750Z,99.90
2018-09-06T01:51:34.907Z,99.90
2018-09-06T01:54:02.795Z,99.90
2018-09-06T01:56:30.952Z,99.90
2018-09-06T01:58:58.663Z,99.90
2018-09-06T02:01:26.497Z,99.90
2018-09-06T02:03:54.528Z,99.90
2018-09-06T02:06:22.105Z,99.90
2018-09-06T02:08:49.748Z,99.90
2018-09-06T02:11:17.478Z,99.90
2018-09-06T02:13:45.122Z,99.90
2018-09-06T02:16:12.760Z,99.90
2018-09-06T02:18:40.439Z,99.90
2018-09-06T02:21:08.109Z,99.90
2018-09-06T02:23:35.760Z,99.90
2018-09-06T02:26:03.392Z,99.90
2018-09-06T02:28:31.183Z,99.90
2018-09-06T02:30:58.823Z,99.90
2018-09-06T02:33:26.451Z,99.90
2018-09-06T02:38:56.009Z,99.90
2018-09-06T02:41:23.634Z,99.90
2018-09-06T02:43:51.304Z,99.90
2018-09-06T02:46:19.016Z,99.90
2018-09-06T02:48:46.682Z,99.90
2018-09-06T02:51:16.910Z,99.90
2018-09-06T02:53:44.774Z,99.90
2018-09-06T02:56:13.004Z,99.90
2018-09-06T02:58:40.778Z,99.90
2018-09-06T03:01:08.694Z,99.90
2018-09-06T03:03:36.387Z,99.90
2018-09-06T03:06:04.023Z,99.90
2018-09-06T03:08:31.796Z,99.90
2018-09-06T03:11:06.565Z,99.90
2018-09-06T03:13:34.210Z,99.90
2018-09-06T03:16:02.041Z,99.90
2018-09-06T03:18:29.696Z,99.90
2018-09-06T03:20:57.383Z,99.90
2018-09-06T03:23:25.166Z,99.90
2018-09-06T03:25:52.825Z,99.90
2018-09-06T03:28:21.567Z,99.90
2018-09-06T03:30:49.220Z,99.90
2018-09-06T03:33:16.851Z,99.90
2018-09-06T03:35:44.538Z,99.90
2018-09-06T03:38:12.226Z,99.90
2018-09-06T03:40:39.867Z,99.90
2018-09-06T03:43:07.546Z,99.90
2018-09-06T03:45:35.254Z,99.90
2018-09-06T03:48:02.919Z,99.90
2018-09-06T03:50:30.537Z,99.90
2018-09-06T03:52:58.349Z,99.90
2018-09-06T03:55:26.031Z,99.90
2018-09-06T03:57:53.716Z,99.90
2018-09-06T04:00:21.465Z,99.90
2018-09-06T04:02:49.104Z,99.90
2018-09-06T04:05:16.737Z,99.90
2018-09-06T04:07:44.554Z,99.90
2018-09-06T04:10:12.227Z,99.90
2018-09-06T04:12:39.978Z,99.90
2018-09-06T04:15:07.703Z,99.90
2018-09-06T04:17:35.496Z,99.90
2018-09-06T04:20:03.213Z,99.90
2018-09-06T04:22:30.893Z,99.90
2018-09-06T04:24:58.549Z,99.90
2018-09-06T04:27:26.186Z,99.90
2018-09-06T04:29:53.880Z,99.90
2018-09-06T04:32:21.523Z,99.90
2018-09-06T04:34:49.241Z,99.90
2018-09-06T04:37:16.965Z,99.90
2018-09-06T04:39:44.646Z,99.90
2018-09-06T04:42:12.308Z,99.90
2018-09-06T04:44:40.037Z,99.90
2018-09-06T04:47:07.729Z,99.90
2018-09-06T04:49:35.371Z,99.90
2018-09-06T04:52:03.021Z,99.90
2018-09-06T04:54:30.679Z,99.90
2018-09-06T04:56:58.357Z,99.90
2018-09-06T04:59:26.036Z,99.90
2018-09-06T05:01:53.697Z,99.90
2018-09-06T05:04:21.459Z,99.90
2018-09-06T05:06:49.045Z,99.90
2018-09-06T05:09:16.722Z,99.90
2018-09-06T05:11:44.465Z,99.90
2018-09-06T05:14:12.229Z,99.90
2018-09-06T05:16:41.982Z,99.90
2018-09-06T05:19:09.689Z,99.90
2018-09-06T05:21:39.580Z,99.90
2018-09-06T05:24:08.006Z,99.90
2018-09-06T05:26:36.422Z,99.90
2018-09-06T05:29:04.691Z,99.90
2018-09-06T05:31:33.189Z,99.90
2018-09-06T05:34:01.101Z,99.90
2018-09-06T05:36:29.156Z,99.90
2018-09-06T05:38:57.200Z,99.90
2018-09-06T05:41:26.179Z,99.90
2018-09-06T05:43:54.159Z,99.90
2018-09-06T05:46:22.262Z,99.90
2018-09-06T05:48:52.620Z,99.90
2018-09-06T05:51:22.857Z,99.90
2018-09-06T05:53:50.937Z,99.90
2018-09-06T05:56:18.974Z,99.90
2018-09-06T05:58:48.455Z,99.90
2018-09-06T06:01:16.678Z,99.90
2018-09-06T06:03:45.406Z,99.90
2018-09-06T06:06:13.616Z,99.90
2018-09-06T06:08:43.719Z,99.90
2018-09-06T06:11:11.754Z,99.90
2018-09-06T06:13:40.440Z,99.90
2018-09-06T06:16:08.728Z,99.90
2018-09-06T06:18:36.547Z,99.90
2018-09-06T06:21:12.385Z,99.90
2018-09-06T06:23:40.048Z,99.90
2018-09-06T06:26:07.870Z,99.90
2018-09-06T06:28:35.460Z,99.90
2018-09-06T06:31:03.201Z,99.90
2018-09-06T06:33:31.210Z,99.90
2018-09-06T06:35:58.855Z,99.90
2018-09-06T06:38:26.465Z,99.90
2018-09-06T06:40:54.095Z,99.90
2018-09-06T06:43:21.709Z,99.90
2018-09-06T06:45:49.362Z,99.90
2018-09-06T06:48:16.981Z,99.90
2018-09-06T06:50:44.624Z,99.90
2018-09-06T06:53:12.274Z,99.90
2018-09-06T06:55:39.853Z,99.90
2018-09-06T06:58:07.591Z,99.90
2018-09-06T07:00:41.155Z,99.90
2018-09-06T07:03:09.094Z,99.90
2018-09-06T07:05:36.750Z,99.90
2018-09-06T07:08:04.455Z,99.90
2018-09-06T07:10:35.805Z,99.90
2018-09-06T07:13:03.630Z,99.90
2018-09-06T07:15:31.247Z,99.90
2018-09-06T07:17:59.155Z,99.90
2018-09-06T07:20:26.806Z,99.80
2018-09-06T07:22:54.420Z,99.40
2018-09-06T07:25:22.009Z,99.10
2018-09-06T07:27:49.659Z,98.90
2018-09-06T07:30:55.193Z,98.70
2018-09-06T07:33:22.637Z,98.30
2018-09-06T07:35:50.113Z,98.80
2018-09-06T07:38:17.741Z,98.20
2018-09-06T07:40:45.173Z,98.10
2018-09-06T07:43:12.601Z,98.00
2018-09-06T07:45:40.093Z,97.80
2018-09-06T07:48:07.517Z,97.30
2018-09-06T07:50:34.984Z,97.70
2018-09-06T07:53:02.467Z,97.00
2018-09-06T07:55:29.881Z,97.10
2018-09-06T07:57:57.390Z,96.70
2018-09-06T08:00:29.128Z,96.20
2018-09-06T08:02:56.843Z,96.40
2018-09-06T08:05:24.497Z,96.20
2018-09-06T08:07:52.192Z,95.70
2018-09-06T08:10:19.796Z,95.70
2018-09-06T08:12:47.469Z,95.60
2018-09-06T08:15:15.177Z,95.40
2018-09-06T08:17:42.838Z,95.50
2018-09-06T08:20:10.475Z,95.60
2018-09-06T08:22:38.107Z,95.50
2018-09-06T08:25:05.943Z,95.60
2018-09-06T08:27:33.550Z,95.60
2018-09-06T08:30:01.154Z,95.50
2018-09-06T08:32:28.748Z,95.50
2018-09-06T08:34:56.363Z,94.50
2018-09-06T08:37:23.988Z,93.80
2018-09-06T08:39:51.624Z,93.80
2018-09-06T08:42:24.011Z,93.30
2018-09-06T08:44:51.622Z,93.10
2018-09-06T08:47:19.262Z,92.80
2018-09-06T08:49:46.870Z,92.50
2018-09-06T08:52:14.458Z,92.30
2018-09-06T08:54:42.119Z,92.60
2018-09-06T08:57:09.944Z,92.80
2018-09-06T08:59:37.716Z,92.90
2018-09-06T09:02:09.708Z,92.70
2018-09-06T09:04:37.446Z,91.60
2018-09-06T09:07:05.264Z,91.70
2018-09-06T09:09:32.997Z,91.70
2018-09-06T09:12:00.732Z,91.30
2018-09-06T09:14:28.477Z,91.50
2018-09-06T09:16:56.210Z,90.70
2018-09-06T09:19:23.998Z,90.80
2018-09-06T09:21:54.186Z,90.40
2018-09-06T09:24:23.308Z,90.10
2018-09-06T09:26:51.578Z,88.80
2018-09-06T09:29:19.613Z,89.30
2018-09-06T09:31:47.679Z,89.00
2018-09-06T09:34:15.537Z,88.60
2018-09-06T09:36:43.576Z,89.20
2018-09-06T09:39:11.407Z,90.00
2018-09-06T09:41:39.440Z,90.30
2018-09-06T09:44:07.197Z,89.80
2018-09-06T09:49:02.450Z,90.70
2018-09-06T09:51:30.670Z,90.20
2018-09-06T09:54:01.543Z,90.30
2018-09-06T09:56:34.496Z,89.90
2018-09-06T09:59:02.415Z,88.50
2018-09-06T10:01:36.321Z,88.80
2018-09-06T10:04:09.373Z,87.10
2018-09-06T10:06:42.448Z,83.50
2018-09-06T10:09:15.220Z,80.50
2018-09-06T10:11:54.885Z,80.30
2018-09-06T10:14:22.608Z,80.80
2018-09-06T10:16:50.255Z,83.70
2018-09-06T10:19:18.106Z,82.90
2018-09-06T10:21:45.726Z,81.10
2018-09-06T10:24:13.358Z,80.40
2018-09-06T10:26:41.304Z,73.60
2018-09-06T10:29:08.995Z,73.70
2018-09-06T10:31:36.655Z,70.00
2018-09-06T10:34:04.383Z,70.30
2018-09-06T10:36:32.649Z,69.80
2018-09-06T10:39:00.321Z,68.70
2018-09-06T10:41:27.962Z,67.60
2018-09-06T10:43:56.084Z,67.00
2018-09-06T10:46:23.703Z,66.60
2018-09-06T10:48:51.446Z,68.00
2018-09-06T10:51:19.201Z,67.80
2018-09-06T10:53:46.835Z,68.10
2018-09-06T10:56:14.546Z,69.50
2018-09-06T10:58:42.398Z,70.00
2018-09-06T11:01:20.847Z,69.80
2018-09-06T11:03:48.785Z,68.60
2018-09-06T11:06:16.546Z,66.00
2018-09-06T11:08:44.197Z,64.40
2018-09-06T11:11:12.023Z,63.50
2018-09-06T11:13:39.826Z,63.00
2018-09-06T11:16:07.597Z,62.40
2018-09-06T11:18:35.278Z,62.50
2018-09-06T11:21:03.478Z,60.10
2018-09-06T11:23:31.346Z,56.60
2018-09-06T11:25:59.053Z,58.50
2018-09-06T11:28:26.822Z,55.50
2018-09-06T11:33:47.695Z,56.00
2018-09-06T11:36:15.524Z,53.50
2018-09-06T11:38:43.285Z,52.80
2018-09-06T11:41:10.956Z,51.10
2018-09-06T11:43:38.618Z,49.30
2018-09-06T11:46:06.627Z,49.80
2018-09-06T11:48:34.430Z,48.90
2018-09-06T11:51:02.147Z,49.00
2018-09-06T11:53:30.285Z,48.90
2018-09-06T11:56:04.338Z,51.00
2018-09-06T11:58:32.019Z,50.60
2018-09-06T12:00:59.908Z,50.00
2018-09-06T12:03:27.610Z,51.70
2018-09-06T12:05:55.311Z,51.60
2018-09-06T12:08:22.964Z,50.90
2018-09-06T12:10:50.696Z,51.70
2018-09-06T12:13:19.619Z,52.50
2018-09-06T12:15:47.243Z,53.80
2018-09-06T12:18:15.019Z,54.20
2018-09-06T12:20:42.887Z,54.10
2018-09-06T12:23:10.565Z,54.40
2018-09-06T12:25:38.436Z,54.50
2018-09-06T12:28:06.091Z,57.40
2018-09-06T12:30:33.801Z,58.40
2018-09-06T12:33:01.496Z,59.20
2018-09-06T12:35:29.311Z,60.00
2018-09-06T12:37:57.145Z,60.80
2018-09-06T12:40:24.855Z,59.50
2018-09-06T12:42:52.564Z,59.40
2018-09-06T12:45:20.236Z,59.30
2018-09-06T12:47:48.359Z,59.20
2018-09-06T12:50:16.023Z,60.70
2018-09-06T12:52:43.858Z,61.30
2018-09-06T12:55:11.939Z,61.40
2018-09-06T12:57:40.948Z,60.60
2018-09-06T13:00:08.712Z,60.10
2018-09-06T13:02:36.403Z,59.60
2018-09-06T13:05:04.335Z,59.30
2018-09-06T13:07:32.136Z,60.50
2018-09-06T13:10:00.044Z,60.50
2018-09-06T13:12:28.681Z,60.70
2018-09-06T13:14:56.495Z,60.00
2018-09-06T13:17:24.207Z,60.30
2018-09-06T13:19:52.145Z,60.00
2018-09-06T13:22:19.871Z,61.00
2018-09-06T13:24:47.621Z,61.50
2018-09-06T13:27:15.446Z,62.80
2018-09-06T13:29:44.177Z,64.70
2018-09-06T13:32:11.970Z,66.60
2018-09-06T13:34:39.743Z,69.50
2018-09-06T13:37:07.473Z,73.10
2018-09-06T13:39:35.205Z,75.40
2018-09-06T13:42:14.718Z,77.70
2018-09-06T13:44:42.724Z,79.90
2018-09-06T13:47:10.499Z,81.20
2018-09-06T13:49:38.254Z,82.40
2018-09-06T13:52:06.022Z,83.00
2018-09-06T13:54:33.747Z,84.00
2018-09-06T13:57:02.438Z,83.10
2018-09-06T13:59:30.098Z,83.20
2018-09-06T14:01:58.099Z,83.20
2018-09-06T14:04:25.889Z,83.10
2018-09-06T14:06:53.509Z,80.40
2018-09-06T14:09:21.310Z,79.10
2018-09-06T14:11:49.017Z,79.20
2018-09-06T14:14:16.723Z,78.00
2018-09-06T14:16:44.372Z,78.30
2018-09-06T14:19:11.992Z,78.30
2018-09-06T14:21:39.937Z,76.80
2018-09-06T14:24:07.824Z,76.40
2018-09-06T14:26:35.517Z,75.60
2018-09-06T14:29:03.288Z,74.70
2018-09-06T14:31:30.935Z,74.60
2018-09-06T14:33:58.583Z,77.40
2018-09-06T14:39:13.316Z,77.60
2018-09-06T14:41:42.537Z,79.10
2018-09-06T14:44:10.385Z,79.60
2018-09-06T14:46:37.983Z,79.90
2018-09-06T14:49:05.922Z,81.50
2018-09-06T14:51:33.578Z,80.80
2018-09-06T14:54:07.902Z,81.20
2018-09-06T14:56:35.533Z,83.10
2018-09-06T14:59:04.145Z,84.80
2018-09-06T15:01:31.843Z,87.10
2018-09-06T15:03:59.446Z,87.90
2018-09-06T15:06:27.457Z,88.10
2018-09-06T15:08:55.108Z,88.60
2018-09-06T15:11:22.822Z,88.20
2018-09-06T15:13:50.576Z,88.10
2018-09-06T15:16:18.260Z,88.70
2018-09-06T15:18:46.265Z,89.70
2018-09-06T15:21:13.890Z,89.30
2018-09-06T15:23:41.531Z,89.00
2018-09-06T15:26:09.345Z,88.80
2018-09-06T15:28:37.062Z,88.80
2018-09-06T15:31:04.735Z,88.30
2018-09-06T15:33:32.490Z,88.00
2018-09-06T15:36:00.324Z,88.10
2018-09-06T15:38:28.304Z,87.90
2018-09-06T15:40:56.331Z,89.10
2018-09-06T15:43:24.212Z,86.90
2018-09-06T15:45:51.863Z,86.10
2018-09-06T15:48:19.535Z,85.30
2018-09-06T15:50:47.221Z,85.20
2018-09-06T15:53:14.912Z,84.30
2018-09-06T15:55:43.027Z,84.00
2018-09-06T15:58:10.743Z,83.00
2018-09-06T16:00:38.434Z,83.60
2018-09-06T16:03:09.697Z,83.40
2018-09-06T16:05:39.745Z,85.00
2018-09-06T16:08:08.110Z,84.70
2018-09-06T16:10:36.920Z,84.60
2018-09-06T16:13:07.792Z,84.60
2018-09-06T16:15:37.691Z,85.60
2018-09-06T16:18:05.625Z,85.60
2018-09-06T16:20:36.380Z,85.20
2018-09-06T16:23:04.567Z,85.30
2018-09-06T16:25:32.338Z,90.00
2018-09-06T16:28:17.962Z,90.50
2018-09-06T16:30:46.622Z,90.90
2018-09-06T16:33:15.718Z,91.00
2018-09-06T16:35:44.579Z,91.30
2018-09-06T16:38:12.500Z,91.30
2018-09-06T16:40:42.434Z,91.40
2018-09-06T16:46:25.418Z,91.60
2018-09-06T18:27:05.264Z,99.90
2018-09-06T18:29:41.865Z,99.90
2018-09-06T19:48:47.462Z,99.90
2018-09-06T19:51:15.131Z,99.90
2018-09-06T19:53:42.883Z,99.90
2018-09-06T19:56:10.551Z,99.90
2018-09-06T19:58:38.142Z,99.90
2018-09-06T20:01:05.802Z,99.90
2018-09-06T20:03:37.397Z,99.90
2018-09-06T20:06:05.029Z,99.90
2018-09-06T20:08:45.979Z,99.90
2018-09-06T20:11:13.644Z,99.90
2018-09-06T20:13:41.340Z,99.90
2018-09-06T20:16:08.941Z,99.90
2018-09-06T20:18:36.553Z,99.90
2018-09-06T20:21:04.390Z,99.90
2018-09-06T20:23:32.159Z,99.90
2018-09-06T20:25:59.874Z,99.90
2018-09-06T20:28:27.550Z,99.90
2018-09-06T20:30:55.232Z,99.90
2018-09-06T20:36:22.980Z,99.90
2018-09-06T20:38:50.702Z,99.90
2018-09-06T20:41:18.442Z,99.90
2018-09-06T20:43:46.048Z,99.90
2018-09-06T20:46:13.717Z,99.90
2018-09-06T20:48:41.315Z,99.90
2018-09-06T20:51:08.939Z,99.90
2018-09-06T20:53:36.699Z,99.90
2018-09-06T20:56:05.151Z,99.90
2018-09-06T20:58:32.781Z,99.90
2018-09-06T21:01:00.438Z,99.90
2018-09-06T21:03:28.082Z,99.90
2018-09-06T21:05:55.814Z,99.90
2018-09-06T21:08:23.524Z,99.90
2018-09-06T21:10:51.281Z,99.90
2018-09-06T21:13:18.995Z,99.90
2018-09-06T21:15:46.723Z,99.90
2018-09-06T21:18:14.374Z,99.90
2018-09-06T21:20:42.049Z,99.90
2018-09-06T21:23:09.675Z,99.90
2018-09-06T21:25:37.288Z,99.90
2018-09-06T21:28:04.969Z,99.90
2018-09-06T21:30:32.686Z,99.90
2018-09-06T21:33:00.330Z,99.90
2018-09-06T21:35:27.963Z,99.90
2018-09-06T21:37:55.602Z,99.90
2018-09-06T21:40:23.237Z,99.90
2018-09-06T21:42:50.837Z,99.90
2018-09-06T21:45:18.465Z,99.90
2018-09-06T21:47:46.093Z,99.90
2018-09-06T21:50:13.772Z,99.90
2018-09-06T21:52:41.403Z,99.90
2018-09-06T21:55:09.066Z,99.90
2018-09-06T21:57:36.649Z,99.90
2018-09-06T22:00:04.795Z,99.90
2018-09-06T22:02:37.989Z,99.90
2018-09-06T22:05:05.777Z,99.90
2018-09-06T22:07:33.370Z,99.90
2018-09-06T22:10:01.020Z,99.90
2018-09-06T22:12:28.704Z,99.90
2018-09-06T22:14:56.347Z,99.90
2018-09-06T22:17:23.995Z,99.90
2018-09-06T22:19:51.665Z,99.90
2018-09-06T22:22:19.321Z,99.90
2018-09-06T22:24:47.002Z,99.90
2018-09-06T22:27:14.623Z,99.90
2018-09-06T22:29:42.309Z,99.90
2018-09-06T22:32:10.036Z,99.90
2018-09-06T22:34:37.706Z,99.90
2018-09-06T22:37:05.405Z,99.90
2018-09-06T22:39:33.027Z,99.90
2018-09-06T22:42:00.681Z,99.90
2018-09-06T22:44:28.353Z,99.90
2018-09-06T22:46:56.018Z,99.90
2018-09-06T22:49:23.669Z,99.90
2018-09-06T22:51:51.281Z,99.90
2018-09-06T22:54:18.913Z,99.90
2018-09-06T22:56:46.631Z,99.90
2018-09-06T22:59:14.302Z,99.90
2018-09-06T23:01:43.006Z,99.90
2018-09-06T23:04:10.728Z,99.90
2018-09-06T23:06:38.326Z,99.90
2018-09-06T23:09:06.772Z,99.90
2018-09-06T23:11:34.459Z,99.90
2018-09-06T23:14:02.239Z,99.90
2018-09-06T23:16:30.881Z,99.90
2018-09-06T23:18:58.619Z,99.90
2018-09-06T23:21:26.402Z,99.90
2018-09-06T23:23:54.013Z,99.90
2018-09-06T23:26:21.650Z,99.90
2018-09-06T23:28:49.300Z,99.90
2018-09-06T23:31:17.063Z,99.90
2018-09-06T23:33:44.762Z,99.90
2018-09-06T23:36:12.432Z,99.90
2018-09-06T23:38:40.116Z,99.90
2018-09-06T23:41:07.847Z,99.90
2018-09-06T23:43:35.535Z,99.90
2018-09-06T23:46:03.248Z,99.90
2018-09-06T23:48:30.913Z,99.90
2018-09-06T23:50:58.913Z,99.90
2018-09-06T23:53:27.530Z,99.90
2018-09-06T23:55:55.222Z,99.90
2018-09-06T23:58:23.058Z,99.90
